Главная страница
METAR-TAF:

METAR-TAF

Аэропорты :

Гуам

Хагатна, Гуам, США

широта: 13-29N, долгота: 144-48E, высота над уровнем моря: 91 м

Текущие метеонаблюдения

Эта сводка был подготовлена 10 минут назад, в 11:54 UTC
Штиль
Температура 28°C
Влажность 89%
Давление 1010 hPa
Видимость: 16.1 км
ясное небо

METAR: PGUM 241154Z 00000KT 10SM CLR 28/26 A2983 RMK AO2 SLP094 7//// T02780261 10306 20267 50007

Время: 22:04 (12:04 UTC)

Прогноз

Эта сводка был подготовлена 44 минут назад, в 11:20 UTC
Прогноз действительный с 24-го 12 UTC до 25-го 18 UTC
Ветер 7 Узел от западный-юго-западный
Видимость: 10 км
Отдельные облака на высоте 1800 фута
Отдельные облака на высоте 3000 фута
Рассеянная облачность на высоте 12000 фута
ливни в окрестностях

TAF: PGUM 241120Z 2412/2518 25007KT P6SM VCSH SCT018 SCT030 BKN120

Метеонаблюдения и прогнозы для более 4000 аэропортов (сводки METAR и TAF).

Имеющиеся станции представлены на карте желтыми и красными точками.

Чтобы увидеть название станции, наведите на нее мышь.

Затем щелкните, чтобы увидеть метеонаблюдения и метеопрогнозы.

Управление картой: чтобы увеличить масштаб, щелкните зеленые кнопки с черным крестиком; чтобы уменьшить масштаб, щелкните зеленую кнопку с тире; для просмотра соседних карт щелкайте зеленые стрелки.


METAR-TAF: